createdAt,value
2023-07-11T12:11:31.638Z,97514.75
2023-07-11T12:14:22.073Z,97517.88
2023-07-11T12:16:51.920Z,97520.56
2023-07-11T12:19:32.646Z,97504.38
2023-07-11T12:22:06.091Z,97506.59
2023-07-11T12:24:56.874Z,97506.75
2023-07-11T12:27:58.326Z,97505.41
2023-07-11T12:30:55.961Z,97500.44
2023-07-11T12:33:35.421Z,97493.53
2023-07-11T12:36:46.068Z,97483.94
2023-07-11T12:39:28.138Z,97484.59
2023-07-11T12:42:01.380Z,97484.22
2023-07-11T12:44:30.915Z,97486.88
2023-07-11T12:47:06.860Z,97476.09
2023-07-11T12:49:35.722Z,97476.50
2023-07-11T12:52:09.948Z,97477.69
2023-07-11T12:54:38.210Z,97469.25
2023-07-11T12:57:11.596Z,97469.63
2023-07-11T12:59:40.355Z,97471.69
2023-07-11T13:02:10.695Z,97475.91
2023-07-11T13:04:40.262Z,97470.41
2023-07-11T13:07:14.339Z,97468.34
2023-07-11T13:09:44.730Z,97471.63
2023-07-11T13:12:20.883Z,97464.88
2023-07-11T13:14:50.529Z,97453.94
2023-07-11T13:17:22.891Z,97456.84
2023-07-11T13:19:54.301Z,97454.00
2023-07-11T13:22:23.229Z,97453.59
2023-07-11T13:24:51.596Z,97445.75
2023-07-11T13:27:22.211Z,97450.81
2023-07-11T13:29:53.794Z,97448.69
2023-07-11T13:32:25.649Z,97442.06
2023-07-11T13:34:56.990Z,97434.88
2023-07-11T13:37:30.604Z,97437.03
2023-07-11T13:39:59.824Z,97444.78
2023-07-11T13:42:29.521Z,97440.59
2023-07-11T13:44:59.175Z,97439.53
2023-07-11T13:47:35.148Z,97441.25
2023-07-11T13:50:13.229Z,97433.88
2023-07-11T13:52:44.098Z,97437.81
2023-07-11T13:55:16.080Z,97431.03
2023-07-11T13:57:46.940Z,97421.50
2023-07-11T14:00:16.988Z,97428.03
2023-07-11T14:02:47.474Z,97436.72
2023-07-11T14:05:24.015Z,97432.94
2023-07-11T14:07:54.359Z,97432.34
2023-07-11T14:10:25.911Z,97418.81
2023-07-11T14:12:55.041Z,97415.94
2023-07-11T14:15:25.652Z,97414.47
2023-07-11T14:17:59.466Z,97419.50
2023-07-11T14:20:29.757Z,97412.19
2023-07-11T14:23:02.681Z,97413.91
2023-07-11T14:25:32.098Z,97416.31
2023-07-11T14:28:00.820Z,97421.94
2023-07-11T14:30:30.431Z,97418.25
2023-07-11T14:33:00.289Z,97418.56
2023-07-11T14:35:29.524Z,97419.22
2023-07-11T14:37:57.884Z,97412.31
2023-07-11T14:40:28.140Z,97414.72
2023-07-11T14:42:56.448Z,97425.19
2023-07-11T14:45:26.112Z,97420.88
2023-07-11T14:47:55.222Z,97413.59
2023-07-11T14:50:27.468Z,97412.25
2023-07-11T14:52:56.368Z,97411.19
2023-07-11T14:57:58.792Z,97407.25
2023-07-11T15:00:28.920Z,97411.38
2023-07-11T15:02:57.395Z,97422.28
2023-07-11T15:10:31.423Z,97403.63
2023-07-11T15:15:33.311Z,97393.63
2023-07-11T15:18:01.863Z,97396.22
2023-07-11T15:20:31.507Z,97397.22
2023-07-11T15:23:00.963Z,97391.38
2023-07-11T15:25:31.771Z,97400.22
2023-07-11T15:28:00.342Z,97400.16
2023-07-11T15:30:29.476Z,97400.47
2023-07-11T15:32:58.315Z,97414.94
2023-07-11T15:35:29.718Z,97427.97
2023-07-11T15:38:02.495Z,97423.91
2023-07-11T15:40:32.331Z,97416.75
2023-07-11T15:43:03.258Z,97416.19
2023-07-11T15:45:33.236Z,97411.88
2023-07-11T15:48:01.432Z,97418.66
2023-07-11T15:50:30.623Z,97426.09
2023-07-11T15:53:01.296Z,97414.97
2023-07-11T15:55:32.590Z,97423.56
2023-07-11T15:58:00.841Z,97418.66
2023-07-11T16:00:30.617Z,97426.81
2023-07-11T16:02:59.266Z,97424.16
2023-07-11T16:05:31.675Z,97427.78
2023-07-11T16:08:01.338Z,97421.47
2023-07-11T16:10:32.068Z,97422.94
2023-07-11T16:13:00.809Z,97420.13
2023-07-11T16:15:31.406Z,97413.66
2023-07-11T16:17:59.934Z,97405.63
2023-07-11T16:20:30.788Z,97401.50
2023-07-11T16:22:59.088Z,97405.72
2023-07-11T16:25:29.833Z,97404.44
2023-07-11T16:28:00.021Z,97411.78
2023-07-11T16:30:29.792Z,97417.91
2023-07-11T16:32:59.184Z,97420.47
2023-07-11T16:35:34.692Z,97436.91
2023-07-11T16:38:04.516Z,97434.06
2023-07-11T16:40:34.621Z,97425.09
2023-07-11T16:43:02.852Z,97421.84
2023-07-11T16:45:33.592Z,97404.44
2023-07-11T16:48:02.001Z,97389.81
2023-07-11T16:50:31.132Z,97373.88
2023-07-11T16:53:00.937Z,97377.28
2023-07-11T16:55:29.840Z,97398.88
2023-07-11T16:57:59.440Z,97399.19
2023-07-11T17:00:29.326Z,97384.97
2023-07-11T17:02:58.779Z,97391.38
2023-07-11T17:05:29.050Z,97395.25
2023-07-11T17:07:58.854Z,97391.94
2023-07-11T17:10:28.967Z,97386.19
2023-07-11T17:13:01.812Z,97374.63
2023-07-11T17:15:33.284Z,97344.63
2023-07-11T17:18:07.039Z,97311.75
2023-07-11T17:20:38.709Z,97321.00
2023-07-11T17:23:13.685Z,97345.91
2023-07-11T17:25:45.151Z,97376.47
2023-07-11T17:28:21.525Z,97390.94
2023-07-11T17:30:52.621Z,97386.91
2023-07-11T17:33:26.015Z,97385.56
2023-07-11T17:35:58.481Z,97380.22
2023-07-11T17:38:31.779Z,97370.94
2023-07-11T17:41:02.835Z,97361.22
2023-07-11T17:43:36.366Z,97348.03
2023-07-11T17:48:46.679Z,97343.69
2023-07-11T17:51:18.195Z,97339.03
2023-07-11T17:53:49.833Z,97334.50
2023-07-11T17:56:21.612Z,97336.50
2023-07-11T17:58:54.345Z,97338.66
2023-07-11T18:01:25.624Z,97339.81
2023-07-11T18:03:57.757Z,97340.56
2023-07-11T18:06:29.033Z,97346.00
2023-07-11T18:09:00.513Z,97349.00
2023-07-11T18:11:31.708Z,97342.94
2023-07-11T18:14:04.636Z,97340.31
2023-07-11T18:16:38.557Z,97338.31
2023-07-11T18:19:11.658Z,97351.13
2023-07-11T18:21:44.174Z,97353.78
2023-07-11T18:24:15.994Z,97361.34
2023-07-11T18:26:47.406Z,97354.69
2023-07-11T18:29:21.268Z,97351.22
2023-07-11T18:31:53.272Z,97352.56
2023-07-11T18:34:25.202Z,97347.13
2023-07-11T18:37:02.187Z,97349.88
2023-07-11T18:39:33.581Z,97344.47
2023-07-11T18:42:05.749Z,97344.63
2023-07-11T18:44:39.143Z,97346.06
2023-07-11T18:47:20.440Z,97350.75
2023-07-11T18:49:56.801Z,97345.78
2023-07-11T18:52:30.757Z,97341.56
2023-07-11T18:55:03.366Z,97337.19
2023-07-11T18:57:37.253Z,97334.34
2023-07-11T19:00:21.832Z,97322.97
2023-07-11T19:02:53.704Z,97321.59
2023-07-11T19:05:27.288Z,97326.78
2023-07-11T19:07:58.706Z,97320.81
2023-07-11T19:10:32.237Z,97325.88
2023-07-11T19:13:03.930Z,97315.38
2023-07-11T19:15:36.643Z,97320.50
2023-07-11T19:18:09.744Z,97334.00
2023-07-11T19:20:40.726Z,97342.44
2023-07-11T19:23:15.431Z,97351.16
2023-07-11T19:25:49.051Z,97345.13
2023-07-11T19:28:20.656Z,97350.88
2023-07-11T19:30:53.940Z,97351.19
2023-07-11T19:33:22.686Z,97351.34
2023-07-11T19:35:52.466Z,97345.41
2023-07-11T19:38:23.261Z,97341.81
2023-07-11T19:40:53.207Z,97341.94
2023-07-11T19:43:21.798Z,97333.66
2023-07-11T19:45:53.051Z,97347.56
2023-07-11T19:48:22.839Z,97336.97
2023-07-11T19:50:52.834Z,97347.25
2023-07-11T19:53:22.935Z,97340.19
2023-07-11T19:55:53.173Z,97334.03
2023-07-11T19:58:23.783Z,97336.56
2023-07-11T20:00:59.852Z,97340.19
2023-07-11T20:03:31.771Z,97337.63
2023-07-11T20:06:06.692Z,97335.09
2023-07-11T20:08:36.018Z,97330.19
2023-07-11T20:11:06.857Z,97334.81
2023-07-11T20:13:36.371Z,97336.28
2023-07-11T20:16:15.905Z,97345.53
2023-07-11T20:18:46.933Z,97350.69
2023-07-11T20:21:21.243Z,97341.06
2023-07-11T20:23:52.342Z,97336.16
2023-07-11T20:26:24.797Z,97338.63
2023-07-11T20:28:55.587Z,97339.03
2023-07-11T20:31:26.428Z,97342.31
2023-07-11T20:33:55.560Z,97330.03
2023-07-11T20:36:28.678Z,97328.91
2023-07-11T20:39:00.780Z,97320.22
2023-07-11T20:41:31.731Z,97332.59
2023-07-11T20:44:02.619Z,97332.03
2023-07-11T20:46:35.346Z,97327.03
2023-07-11T20:49:06.352Z,97331.06
2023-07-11T20:51:37.573Z,97338.53
2023-07-11T20:54:09.151Z,97342.41
2023-07-11T20:56:39.811Z,97345.13
2023-07-11T20:59:13.755Z,97340.44
2023-07-11T21:01:44.094Z,97341.56
2023-07-11T21:04:12.722Z,97333.66
2023-07-11T21:06:42.759Z,97344.84
2023-07-11T21:09:15.012Z,97339.38
2023-07-11T21:11:45.876Z,97331.84
2023-07-11T21:14:14.558Z,97327.31
2023-07-11T21:16:44.242Z,97325.41
2023-07-11T21:19:22.388Z,97322.72
2023-07-11T21:21:50.903Z,97319.09
2023-07-11T21:24:19.148Z,97326.06
2023-07-11T21:26:47.440Z,97325.31
2023-07-11T21:29:16.037Z,97319.66
2023-07-11T21:31:46.388Z,97311.19
2023-07-11T21:34:15.114Z,97310.34
2023-07-11T21:36:43.346Z,97314.94
2023-07-11T21:39:15.022Z,97320.34
2023-07-11T21:41:43.285Z,97317.44
2023-07-11T21:44:13.306Z,97308.47
2023-07-11T21:46:41.791Z,97308.34
2023-07-11T21:49:11.998Z,97313.16
2023-07-11T21:51:40.424Z,97303.47
2023-07-11T21:54:08.733Z,97308.09
2023-07-11T21:56:37.352Z,97306.94
2023-07-11T21:59:05.778Z,97299.75
2023-07-11T22:01:34.095Z,97300.38
2023-07-11T22:04:04.369Z,97304.22
2023-07-11T22:06:35.240Z,97304.53
2023-07-11T22:09:03.629Z,97303.38
2023-07-11T22:11:31.882Z,97301.97
2023-07-11T22:14:00.081Z,97294.38
2023-07-11T22:16:30.267Z,97294.00
2023-07-11T22:18:58.944Z,97297.72
2023-07-11T22:21:29.058Z,97302.41
2023-07-11T22:23:59.046Z,97300.38
2023-07-11T22:26:31.654Z,97294.56
2023-07-11T22:29:02.596Z,97292.13
2023-07-11T22:31:31.211Z,97284.84
2023-07-11T22:33:59.636Z,97275.41
2023-07-11T22:36:28.133Z,97270.06
2023-07-11T22:38:56.370Z,97271.19
2023-07-11T22:41:25.967Z,97268.56
2023-07-11T22:43:54.268Z,97276.75
2023-07-11T22:46:22.978Z,97263.44
2023-07-11T22:48:51.507Z,97266.22
2023-07-11T22:51:20.179Z,97272.53
2023-07-11T22:53:48.945Z,97278.84
2023-07-11T22:56:19.910Z,97291.56
2023-07-11T22:58:50.241Z,97280.16
2023-07-11T23:01:20.443Z,97273.38
2023-07-11T23:03:49.018Z,97273.66
2023-07-11T23:06:21.000Z,97266.63
2023-07-11T23:08:50.001Z,97262.16
2023-07-11T23:11:18.787Z,97278.44
2023-07-11T23:13:47.565Z,97282.94
2023-07-11T23:16:21.210Z,97292.34
2023-07-11T23:18:49.661Z,97293.91
2023-07-11T23:21:19.425Z,97301.88
2023-07-11T23:23:47.735Z,97309.34
2023-07-11T23:26:16.114Z,97305.84
2023-07-11T23:28:44.343Z,97299.91
2023-07-11T23:31:14.289Z,97288.44
2023-07-11T23:33:44.253Z,97285.38
2023-07-11T23:36:15.746Z,97283.50
2023-07-11T23:38:44.525Z,97286.47
2023-07-11T23:41:15.559Z,97284.44
2023-07-11T23:43:46.021Z,97282.16
2023-07-11T23:46:22.614Z,97276.22
2023-07-11T23:48:52.718Z,97274.06
2023-07-11T23:51:22.069Z,97263.38
2023-07-11T23:53:50.816Z,97247.94
2023-07-11T23:56:22.377Z,97225.94
2023-07-11T23:58:51.569Z,97233.66
